sensor_id;sensor_type;location;lat;lon;timestamp;pressure;altitude;pressure_sealevel;temperature;humidity
79589;BME280;69067;51.930;4.492;2023-04-25T00:01:34;101106.75;;;18.85;48.74
79589;BME280;69067;51.930;4.492;2023-04-25T00:04:02;101101.00;;;18.88;48.66
79589;BME280;69067;51.930;4.492;2023-04-25T00:06:29;101096.66;;;18.87;49.93
79589;BME280;69067;51.930;4.492;2023-04-25T00:08:55;101095.13;;;18.84;49.05
79589;BME280;69067;51.930;4.492;2023-04-25T00:11:22;101095.28;;;18.83;48.96
79589;BME280;69067;51.930;4.492;2023-04-25T00:13:48;101099.50;;;18.85;48.75
79589;BME280;69067;51.930;4.492;2023-04-25T00:16:16;101096.81;;;18.85;49.09
79589;BME280;69067;51.930;4.492;2023-04-25T00:18:42;101099.69;;;18.84;49.18
79589;BME280;69067;51.930;4.492;2023-04-25T00:21:08;101102.22;;;18.85;49.58
79589;BME280;69067;51.930;4.492;2023-04-25T00:23:34;101101.53;;;18.83;49.46
79589;BME280;69067;51.930;4.492;2023-04-25T00:26:02;101096.28;;;18.82;49.45
79589;BME280;69067;51.930;4.492;2023-04-25T00:28:28;101105.06;;;18.84;49.25
79589;BME280;69067;51.930;4.492;2023-04-25T00:30:54;101111.47;;;18.83;48.79
79589;BME280;69067;51.930;4.492;2023-04-25T00:33:19;101102.06;;;18.79;49.60
79589;BME280;69067;51.930;4.492;2023-04-25T00:35:46;101099.34;;;18.79;49.77
79589;BME280;69067;51.930;4.492;2023-04-25T00:38:12;101100.84;;;18.81;49.66
79589;BME280;69067;51.930;4.492;2023-04-25T00:40:37;101094.97;;;18.78;50.10
79589;BME280;69067;51.930;4.492;2023-04-25T00:43:03;101108.28;;;18.79;48.79
79589;BME280;69067;51.930;4.492;2023-04-25T00:45:29;101104.75;;;18.79;49.14
79589;BME280;69067;51.930;4.492;2023-04-25T00:47:56;101104.91;;;18.77;49.30
79589;BME280;69067;51.930;4.492;2023-04-25T00:50:22;101112.00;;;18.78;49.51
79589;BME280;69067;51.930;4.492;2023-04-25T00:52:49;101112.84;;;18.79;49.33
79589;BME280;69067;51.930;4.492;2023-04-25T00:55:15;101114.84;;;18.77;50.00
79589;BME280;69067;51.930;4.492;2023-04-25T00:57:42;101112.16;;;18.77;49.81
79589;BME280;69067;51.930;4.492;2023-04-25T01:00:09;101120.94;;;18.79;49.66
79589;BME280;69067;51.930;4.492;2023-04-25T01:02:37;101118.41;;;18.77;49.01
79589;BME280;69067;51.930;4.492;2023-04-25T01:05:03;101119.25;;;18.78;49.73
79589;BME280;69067;51.930;4.492;2023-04-25T01:07:29;101119.25;;;18.78;49.61
79589;BME280;69067;51.930;4.492;2023-04-25T01:09:56;101114.53;;;18.80;48.64
79589;BME280;69067;51.930;4.492;2023-04-25T01:12:23;101118.88;;;18.81;48.29
79589;BME280;69067;51.930;4.492;2023-04-25T01:14:49;101116.88;;;18.75;48.64
79589;BME280;69067;51.930;4.492;2023-04-25T01:17:15;101120.41;;;18.75;49.04
79589;BME280;69067;51.930;4.492;2023-04-25T01:19:43;101122.09;;;18.76;49.47
79589;BME280;69067;51.930;4.492;2023-04-25T01:22:09;101127.50;;;18.76;48.38
79589;BME280;69067;51.930;4.492;2023-04-25T01:24:36;101126.81;;;18.74;49.38
79589;BME280;69067;51.930;4.492;2023-04-25T01:27:03;101128.69;;;18.74;49.97
79589;BME280;69067;51.930;4.492;2023-04-25T01:29:30;101132.06;;;18.76;48.92
79589;BME280;69067;51.930;4.492;2023-04-25T01:31:57;101132.72;;;18.78;48.94
79589;BME280;69067;51.930;4.492;2023-04-25T01:34:24;101137.97;;;18.79;48.68
79589;BME280;69067;51.930;4.492;2023-04-25T01:36:51;101127.00;;;18.73;48.83
79589;BME280;69067;51.930;4.492;2023-04-25T01:39:18;101137.44;;;18.76;48.35
79589;BME280;69067;51.930;4.492;2023-04-25T01:41:48;101138.66;;;18.73;50.14
79589;BME280;69067;51.930;4.492;2023-04-25T01:44:14;101136.78;;;18.74;49.15
79589;BME280;69067;51.930;4.492;2023-04-25T01:46:41;101136.78;;;18.74;49.92
79589;BME280;69067;51.930;4.492;2023-04-25T01:49:06;101142.00;;;18.75;49.72
79589;BME280;69067;51.930;4.492;2023-04-25T01:51:32;101143.00;;;18.74;49.44
79589;BME280;69067;51.930;4.492;2023-04-25T01:53:58;101152.13;;;18.73;48.67
79589;BME280;69067;51.930;4.492;2023-04-25T01:56:25;101143.00;;;18.74;48.77
79589;BME280;69067;51.930;4.492;2023-04-25T01:58:51;101151.28;;;18.73;49.02
79589;BME280;69067;51.930;4.492;2023-04-25T02:01:17;101151.63;;;18.70;49.41
79589;BME280;69067;51.930;4.492;2023-04-25T02:03:43;101153.13;;;18.72;50.09
79589;BME280;69067;51.930;4.492;2023-04-25T02:06:08;101147.91;;;18.71;49.08
79589;BME280;69067;51.930;4.492;2023-04-25T02:08:34;101142.84;;;18.68;48.51
79589;BME280;69067;51.930;4.492;2023-04-25T02:11:00;101149.75;;;18.70;49.31
79589;BME280;69067;51.930;4.492;2023-04-25T02:13:26;101146.91;;;18.72;49.15
79589;BME280;69067;51.930;4.492;2023-04-25T02:15:51;101145.53;;;18.68;49.01
79589;BME280;69067;51.930;4.492;2023-04-25T02:18:17;101147.22;;;18.69;49.57
79589;BME280;69067;51.930;4.492;2023-04-25T02:20:43;101144.53;;;18.69;49.59
79589;BME280;69067;51.930;4.492;2023-04-25T02:23:09;101150.94;;;18.68;49.07
79589;BME280;69067;51.930;4.492;2023-04-25T02:25:35;101148.22;;;18.68;49.49
79589;BME280;69067;51.930;4.492;2023-04-25T02:28:01;101150.59;;;18.71;48.87
79589;BME280;69067;51.930;4.492;2023-04-25T02:30:27;101155.16;;;18.70;48.18
79589;BME280;69067;51.930;4.492;2023-04-25T02:32:52;101154.31;;;18.70;48.19
79589;BME280;69067;51.930;4.492;2023-04-25T02:35:18;101175.19;;;18.68;48.37
79589;BME280;69067;51.930;4.492;2023-04-25T02:37:44;101177.06;;;18.67;49.02
79589;BME280;69067;51.930;4.492;2023-04-25T02:40:10;101174.19;;;18.69;49.18
79589;BME280;69067;51.930;4.492;2023-04-25T02:42:36;101173.34;;;18.68;49.55
79589;BME280;69067;51.930;4.492;2023-04-25T02:45:02;101172.00;;;18.64;48.73
79589;BME280;69067;51.930;4.492;2023-04-25T02:47:28;101170.00;;;18.66;48.75
79589;BME280;69067;51.930;4.492;2023-04-25T02:49:54;101161.72;;;18.68;49.06
79589;BME280;69067;51.930;4.492;2023-04-25T02:52:20;101154.97;;;18.64;48.24
79589;BME280;69067;51.930;4.492;2023-04-25T02:54:46;101153.97;;;18.65;48.57
79589;BME280;69067;51.930;4.492;2023-04-25T02:57:12;101153.13;;;18.64;48.83
79589;BME280;69067;51.930;4.492;2023-04-25T02:59:38;101157.69;;;18.64;49.24
79589;BME280;69067;51.930;4.492;2023-04-25T03:02:03;101153.28;;;18.63;48.65
79589;BME280;69067;51.930;4.492;2023-04-25T03:04:29;101157.69;;;18.64;49.53
79589;BME280;69067;51.930;4.492;2023-04-25T03:06:55;101160.38;;;18.64;48.95
79589;BME280;69067;51.930;4.492;2023-04-25T03:09:20;101152.81;;;18.59;48.62
79589;BME280;69067;51.930;4.492;2023-04-25T03:11:46;101160.38;;;18.64;49.06
79589;BME280;69067;51.930;4.492;2023-04-25T03:14:13;101159.53;;;18.63;49.31
79589;BME280;69067;51.930;4.492;2023-04-25T03:16:39;101161.22;;;18.64;48.69
79589;BME280;69067;51.930;4.492;2023-04-25T03:19:05;101164.09;;;18.63;49.51
79589;BME280;69067;51.930;4.492;2023-04-25T03:21:32;101162.38;;;18.62;48.31
79589;BME280;69067;51.930;4.492;2023-04-25T03:24:00;101169.47;;;18.63;48.82
79589;BME280;69067;51.930;4.492;2023-04-25T03:26:28;101167.78;;;18.62;48.72
79589;BME280;69067;51.930;4.492;2023-04-25T03:28:53;101169.81;;;18.60;48.69
79589;BME280;69067;51.930;4.492;2023-04-25T03:31:19;101174.03;;;18.62;49.45
79589;BME280;69067;51.930;4.492;2023-04-25T03:33:45;101165.25;;;18.60;48.96
79589;BME280;69067;51.930;4.492;2023-04-25T03:36:11;101172.53;;;18.60;49.32
79589;BME280;69067;51.930;4.492;2023-04-25T03:38:37;101161.22;;;18.64;49.20
79589;BME280;69067;51.930;4.492;2023-04-25T03:41:03;101167.94;;;18.60;49.35
79589;BME280;69067;51.930;4.492;2023-04-25T03:43:28;101169.81;;;18.60;48.61
79589;BME280;69067;51.930;4.492;2023-04-25T03:45:54;101172.69;;;18.58;48.78
79589;BME280;69067;51.930;4.492;2023-04-25T03:48:20;101179.56;;;18.61;49.80
79589;BME280;69067;51.930;4.492;2023-04-25T03:50:54;101172.84;;;18.57;49.09
79589;BME280;69067;51.930;4.492;2023-04-25T03:53:20;101183.31;;;18.60;48.62
79589;BME280;69067;51.930;4.492;2023-04-25T03:55:45;101189.38;;;18.62;49.54
79589;BME280;69067;51.930;4.492;2023-04-25T03:58:11;101188.03;;;18.58;49.78
79589;BME280;69067;51.930;4.492;2023-04-25T04:00:37;101190.88;;;18.56;49.29
79589;BME280;69067;51.930;4.492;2023-04-25T04:03:03;101192.72;;;18.56;49.85
79589;BME280;69067;51.930;4.492;2023-04-25T04:05:28;101185.16;;;18.59;49.42
79589;BME280;69067;51.930;4.492;2023-04-25T04:07:54;101197.13;;;18.57;49.35
79589;BME280;69067;51.930;4.492;2023-04-25T04:10:21;101205.22;;;18.57;49.40
79589;BME280;69067;51.930;4.492;2023-04-25T04:12:47;101201.78;;;18.55;49.41
79589;BME280;69067;51.930;4.492;2023-04-25T04:15:13;101210.72;;;18.55;48.54
79589;BME280;69067;51.930;4.492;2023-04-25T04:17:39;101204.84;;;18.52;49.39
79589;BME280;69067;51.930;4.492;2023-04-25T04:20:06;101198.25;;;18.54;49.48
79589;BME280;69067;51.930;4.492;2023-04-25T04:22:33;101198.44;;;18.53;49.00
79589;BME280;69067;51.930;4.492;2023-04-25T04:24:58;101201.97;;;18.53;48.85
79589;BME280;69067;51.930;4.492;2023-04-25T04:27:24;101205.00;;;18.50;49.56
79589;BME280;69067;51.930;4.492;2023-04-25T04:29:50;101205.69;;;18.52;48.76
79589;BME280;69067;51.930;4.492;2023-04-25T04:32:17;101211.91;;;18.53;48.88
79589;BME280;69067;51.930;4.492;2023-04-25T04:34:43;101207.53;;;18.52;48.96
79589;BME280;69067;51.930;4.492;2023-04-25T04:37:10;101201.97;;;18.53;48.74
79589;BME280;69067;51.930;4.492;2023-04-25T04:39:36;101204.84;;;18.52;49.31
79589;BME280;69067;51.930;4.492;2023-04-25T04:42:02;101214.63;;;18.53;49.74
79589;BME280;69067;51.930;4.492;2023-04-25T04:44:29;101218.16;;;18.53;49.19
79589;BME280;69067;51.930;4.492;2023-04-25T04:46:58;101214.09;;;18.49;49.17
79589;BME280;69067;51.930;4.492;2023-04-25T04:49:24;101214.25;;;18.47;49.16
79589;BME280;69067;51.930;4.492;2023-04-25T04:51:50;101218.31;;;18.52;49.77
79589;BME280;69067;51.930;4.492;2023-04-25T04:54:16;101223.03;;;18.49;48.48
79589;BME280;69067;51.930;4.492;2023-04-25T04:56:42;101226.41;;;18.52;49.23
79589;BME280;69067;51.930;4.492;2023-04-25T04:59:07;101229.41;;;18.48;48.83
79589;BME280;69067;51.930;4.492;2023-04-25T05:01:33;101235.50;;;18.50;49.25
79589;BME280;69067;51.930;4.492;2023-04-25T05:04:02;101235.50;;;18.50;48.84
79589;BME280;69067;51.930;4.492;2023-04-25T05:06:28;101241.22;;;18.47;50.01
79589;BME280;69067;51.930;4.492;2023-04-25T05:08:56;101242.75;;;18.50;49.81
79589;BME280;69067;51.930;4.492;2023-04-25T05:11:23;101251.69;;;18.50;49.05
79589;BME280;69067;51.930;4.492;2023-04-25T05:13:51;101255.38;;;18.49;48.83
79589;BME280;69067;51.930;4.492;2023-04-25T05:16:17;101256.38;;;18.48;50.02
79589;BME280;69067;51.930;4.492;2023-04-25T05:18:43;101266.47;;;18.46;49.06
79589;BME280;69067;51.930;4.492;2023-04-25T05:21:09;101271.56;;;18.49;49.75
79589;BME280;69067;51.930;4.492;2023-04-25T05:23:35;101283.34;;;18.48;49.33
79589;BME280;69067;51.930;4.492;2023-04-25T05:26:01;101275.63;;;18.45;49.07
79589;BME280;69067;51.930;4.492;2023-04-25T05:28:27;101276.47;;;18.46;50.15
79589;BME280;69067;51.930;4.492;2023-04-25T05:30:52;101271.88;;;18.46;49.26
79589;BME280;69067;51.930;4.492;2023-04-25T05:33:18;101289.75;;;18.47;48.67
79589;BME280;69067;51.930;4.492;2023-04-25T05:35:44;101297.84;;;18.47;49.77
79589;BME280;69067;51.930;4.492;2023-04-25T05:38:10;101294.47;;;18.45;49.40
79589;BME280;69067;51.930;4.492;2023-04-25T05:40:36;101290.09;;;18.44;49.18
79589;BME280;69067;51.930;4.492;2023-04-25T05:43:02;101299.69;;;18.47;48.95
79589;BME280;69067;51.930;4.492;2023-04-25T05:45:28;101298.84;;;18.46;48.85
79589;BME280;69067;51.930;4.492;2023-04-25T05:47:54;101306.78;;;18.48;49.41
79589;BME280;69067;51.930;4.492;2023-04-25T05:50:20;101312.16;;;18.48;49.46
79589;BME280;69067;51.930;4.492;2023-04-25T05:52:46;101310.66;;;18.45;49.06
79589;BME280;69067;51.930;4.492;2023-04-25T05:55:11;101323.13;;;18.46;49.66
79589;BME280;69067;51.930;4.492;2023-04-25T05:57:37;101318.56;;;18.47;49.96
79589;BME280;69067;51.930;4.492;2023-04-25T06:00:08;101316.38;;;18.42;49.27
79589;BME280;69067;51.930;4.492;2023-04-25T06:02:35;101318.75;;;18.45;50.00
79589;BME280;69067;51.930;4.492;2023-04-25T06:05:00;101323.44;;;18.43;48.86
79589;BME280;69067;51.930;4.492;2023-04-25T06:07:29;101331.53;;;18.43;49.43
79589;BME280;69067;51.930;4.492;2023-04-25T06:09:58;101331.19;;;18.46;48.83
79589;BME280;69067;51.930;4.492;2023-04-25T06:12:23;101344.03;;;18.44;49.65
79589;BME280;69067;51.930;4.492;2023-04-25T06:14:49;101342.34;;;18.43;49.41
79589;BME280;69067;51.930;4.492;2023-04-25T06:17:15;101348.72;;;18.42;49.43
79589;BME280;69067;51.930;4.492;2023-04-25T06:19:41;101350.25;;;18.45;49.59
79589;BME280;69067;51.930;4.492;2023-04-25T06:22:07;101358.34;;;18.45;49.40
79589;BME280;69067;51.930;4.492;2023-04-25T06:24:33;101360.19;;;18.44;49.21
79589;BME280;69067;51.930;4.492;2023-04-25T06:26:59;101347.19;;;18.40;49.33
79589;BME280;69067;51.930;4.492;2023-04-25T06:29:25;101360.34;;;18.43;49.13
79589;BME280;69067;51.930;4.492;2023-04-25T06:31:52;101359.50;;;18.42;49.29
79589;BME280;69067;51.930;4.492;2023-04-25T06:34:17;101364.22;;;18.40;48.36
79589;BME280;69067;51.930;4.492;2023-04-25T06:36:43;101364.22;;;18.40;49.53
79589;BME280;69067;51.930;4.492;2023-04-25T06:39:10;101366.75;;;18.42;49.21
79589;BME280;69067;51.930;4.492;2023-04-25T06:41:36;101365.06;;;18.41;48.95
79589;BME280;69067;51.930;4.492;2023-04-25T06:44:02;101365.91;;;18.41;49.47
79589;BME280;69067;51.930;4.492;2023-04-25T06:46:28;101373.28;;;18.39;49.16
79589;BME280;69067;51.930;4.492;2023-04-25T06:48:54;101374.34;;;18.38;49.48
79589;BME280;69067;51.930;4.492;2023-04-25T06:51:19;101380.06;;;18.43;49.81
79589;BME280;69067;51.930;4.492;2023-04-25T06:53:45;101373.34;;;18.47;49.27
79589;BME280;69067;51.930;4.492;2023-04-25T06:56:11;101383.47;;;18.45;48.85
79589;BME280;69067;51.930;4.492;2023-04-25T06:58:37;101389.38;;;18.49;49.20
79589;BME280;69067;51.930;4.492;2023-04-25T07:01:03;101389.00;;;18.44;49.60
79589;BME280;69067;51.930;4.492;2023-04-25T07:03:28;101377.69;;;18.40;49.87
79589;BME280;69067;51.930;4.492;2023-04-25T07:05:54;101382.09;;;18.41;49.36
79589;BME280;69067;51.930;4.492;2023-04-25T07:08:20;101383.63;;;18.44;48.98
79589;BME280;69067;51.930;4.492;2023-04-25T07:10:46;101393.41;;;18.45;48.60
79589;BME280;69067;51.930;4.492;2023-04-25T07:13:12;101391.16;;;18.40;49.89
79589;BME280;69067;51.930;4.492;2023-04-25T07:15:38;101388.31;;;18.42;49.15
79589;BME280;69067;51.930;4.492;2023-04-25T07:18:04;101394.72;;;18.41;48.90
79589;BME280;69067;51.930;4.492;2023-04-25T07:20:30;101391.03;;;18.42;49.17
79589;BME280;69067;51.930;4.492;2023-04-25T07:22:56;101396.56;;;18.40;49.38
79589;BME280;69067;51.930;4.492;2023-04-25T07:25:22;101399.25;;;18.40;48.23
79589;BME280;69067;51.930;4.492;2023-04-25T07:27:48;101400.25;;;18.39;48.11
79589;BME280;69067;51.930;4.492;2023-04-25T07:30:14;101405.66;;;18.39;48.85
79589;BME280;69067;51.930;4.492;2023-04-25T07:32:40;101396.91;;;18.37;47.88
79589;BME280;69067;51.930;4.492;2023-04-25T07:35:06;101405.16;;;18.36;49.14
79589;BME280;69067;51.930;4.492;2023-04-25T07:37:33;101407.00;;;18.35;48.73
79589;BME280;69067;51.930;4.492;2023-04-25T07:40:00;101405.28;;;18.34;48.84
79589;BME280;69067;51.930;4.492;2023-04-25T07:42:29;101405.00;;;18.37;48.51
79589;BME280;69067;51.930;4.492;2023-04-25T07:44:55;101391.81;;;18.34;47.88
79589;BME280;69067;51.930;4.492;2023-04-25T07:47:21;101399.25;;;18.32;48.36
79589;BME280;69067;51.930;4.492;2023-04-25T07:49:47;101405.66;;;18.39;48.52
79589;BME280;69067;51.930;4.492;2023-04-25T07:52:13;101407.34;;;18.40;48.03
79589;BME280;69067;51.930;4.492;2023-04-25T07:54:39;101403.50;;;18.43;49.06
79589;BME280;69067;51.930;4.492;2023-04-25T07:57:05;101413.97;;;18.46;52.36
79589;BME280;69067;51.930;4.492;2023-04-25T07:59:32;101417.19;;;18.49;56.36
79589;BME280;69067;51.930;4.492;2023-04-25T08:01:57;101413.97;;;18.46;62.25
79589;BME280;69067;51.930;4.492;2023-04-25T08:04:24;101426.63;;;18.54;62.94
79589;BME280;69067;51.930;4.492;2023-04-25T08:06:51;101420.56;;;18.52;62.36
79589;BME280;69067;51.930;4.492;2023-04-25T08:09:17;101429.31;;;18.54;62.62
79589;BME280;69067;51.930;4.492;2023-04-25T08:11:43;101429.31;;;18.54;61.85
79589;BME280;69067;51.930;4.492;2023-04-25T08:14:09;101432.75;;;18.56;62.15
79589;BME280;69067;51.930;4.492;2023-04-25T08:16:35;101448.94;;;18.56;61.64
79589;BME280;69067;51.930;4.492;2023-04-25T08:19:01;101451.63;;;18.56;62.29
79589;BME280;69067;51.930;4.492;2023-04-25T08:21:26;101458.72;;;18.57;62.37
79589;BME280;69067;51.930;4.492;2023-04-25T08:23:53;101462.72;;;18.53;61.35
79589;BME280;69067;51.930;4.492;2023-04-25T08:26:18;101472.31;;;18.55;59.15
79589;BME280;69067;51.930;4.492;2023-04-25T08:28:44;101472.66;;;18.52;59.36
79589;BME280;69067;51.930;4.492;2023-04-25T08:31:10;101474.50;;;18.52;57.82
79589;BME280;69067;51.930;4.492;2023-04-25T08:33:36;101471.81;;;18.52;56.77
79589;BME280;69067;51.930;4.492;2023-04-25T08:36:02;101479.06;;;18.51;56.63
79589;BME280;69067;51.930;4.492;2023-04-25T08:38:28;101480.91;;;18.50;56.53
79589;BME280;69067;51.930;4.492;2023-04-25T08:40:54;101486.13;;;18.52;55.25
79589;BME280;69067;51.930;4.492;2023-04-25T08:43:20;101479.06;;;18.51;55.02
79589;BME280;69067;51.930;4.492;2023-04-25T08:45:46;101475.66;;;18.49;54.49
79589;BME280;69067;51.930;4.492;2023-04-25T08:48:14;101489.00;;;18.50;55.01
79589;BME280;69067;51.930;4.492;2023-04-25T08:50:48;101479.50;;;18.46;54.37
79589;BME280;69067;51.930;4.492;2023-04-25T08:53:26;101497.38;;;18.47;54.40
79589;BME280;69067;51.930;4.492;2023-04-25T08:55:59;101506.16;;;18.49;53.85
79589;BME280;69067;51.930;4.492;2023-04-25T08:58:30;101510.03;;;18.47;52.92
79589;BME280;69067;51.930;4.492;2023-04-25T09:00:56;101509.16;;;18.46;53.33
79589;BME280;69067;51.930;4.492;2023-04-25T09:03:22;101515.75;;;18.44;52.86
79589;BME280;69067;51.930;4.492;2023-04-25T09:05:47;101519.97;;;18.46;52.18
79589;BME280;69067;51.930;4.492;2023-04-25T09:08:13;101521.00;;;18.45;52.40
79589;BME280;69067;51.930;4.492;2023-04-25T09:10:40;101525.53;;;18.45;51.56
79589;BME280;69067;51.930;4.492;2023-04-25T09:13:07;101539.88;;;18.45;52.62
79589;BME280;69067;51.930;4.492;2023-04-25T09:15:51;101546.94;;;18.46;51.36
79589;BME280;69067;51.930;4.492;2023-04-25T09:21:09;101545.25;;;18.45;51.66
79589;BME280;69067;51.930;4.492;2023-04-25T09:23:46;101535.06;;;18.39;52.06
79589;BME280;69067;51.930;4.492;2023-04-25T09:26:18;101540.72;;;18.46;51.13
79589;BME280;69067;51.930;4.492;2023-04-25T09:28:45;101547.78;;;18.47;50.86
79589;BME280;69067;51.930;4.492;2023-04-25T09:31:12;101553.34;;;18.45;50.67
79589;BME280;69067;51.930;4.492;2023-04-25T09:33:38;101549.94;;;18.43;51.52
79589;BME280;69067;51.930;4.492;2023-04-25T09:36:06;101551.81;;;18.43;50.83
79589;BME280;69067;51.930;4.492;2023-04-25T09:38:40;101562.28;;;18.46;51.37
79589;BME280;69067;51.930;4.492;2023-04-25T09:41:08;101557.19;;;18.43;50.63
79589;BME280;69067;51.930;4.492;2023-04-25T09:43:35;101550.66;;;18.45;50.45
79589;BME280;69067;51.930;4.492;2023-04-25T09:46:02;101559.03;;;18.42;51.26
79589;BME280;69067;51.930;4.492;2023-04-25T09:48:29;101557.50;;;18.40;50.96
79589;BME280;69067;51.930;4.492;2023-04-25T09:51:13;101572.53;;;18.42;50.02
79589;BME280;69067;51.930;4.492;2023-04-25T09:53:41;101569.81;;;18.42;51.06
79589;BME280;69067;51.930;4.492;2023-04-25T09:56:10;101573.53;;;18.41;49.54
79589;BME280;69067;51.930;4.492;2023-04-25T09:58:38;101571.69;;;18.42;50.22
79589;BME280;69067;51.930;4.492;2023-04-25T10:01:07;101569.13;;;18.40;49.67
79589;BME280;69067;51.930;4.492;2023-04-25T10:03:38;101579.25;;;18.38;50.78
79589;BME280;69067;51.930;4.492;2023-04-25T10:06:12;101581.94;;;18.38;49.93
79589;BME280;69067;51.930;4.492;2023-04-25T10:08:39;101577.41;;;18.39;50.63
79589;BME280;69067;51.930;4.492;2023-04-25T10:11:07;101588.34;;;18.37;50.00
79589;BME280;69067;51.930;4.492;2023-04-25T10:13:35;101593.72;;;18.37;50.63
79589;BME280;69067;51.930;4.492;2023-04-25T10:16:04;101596.41;;;18.37;49.48
79589;BME280;69067;51.930;4.492;2023-04-25T10:18:31;101585.63;;;18.37;49.67
79589;BME280;69067;51.930;4.492;2023-04-25T10:21:01;101600.63;;;18.40;49.58
79589;BME280;69067;51.930;4.492;2023-04-25T10:23:32;101601.47;;;18.40;50.36
79589;BME280;69067;51.930;4.492;2023-04-25T10:26:00;101604.66;;;18.36;50.41
79589;BME280;69067;51.930;4.492;2023-04-25T10:28:26;101600.63;;;18.40;49.41
79589;BME280;69067;51.930;4.492;2023-04-25T10:30:57;101607.19;;;18.37;49.17
79589;BME280;69067;51.930;4.492;2023-04-25T10:33:32;101600.81;;;18.38;49.55
79589;BME280;69067;51.930;4.492;2023-04-25T10:38:36;101601.66;;;18.39;49.49
79589;BME280;69067;51.930;4.492;2023-04-25T10:41:07;101602.66;;;18.38;50.24
79589;BME280;69067;51.930;4.492;2023-04-25T10:43:36;101617.84;;;18.39;49.17
79589;BME280;69067;51.930;4.492;2023-04-25T10:46:21;101612.28;;;18.40;48.80
79589;BME280;69067;51.930;4.492;2023-04-25T10:48:57;101614.28;;;18.38;48.95
79589;BME280;69067;51.930;4.492;2023-04-25T10:51:32;101615.97;;;18.39;49.57
79589;BME280;69067;51.930;4.492;2023-04-25T10:54:01;101614.28;;;18.38;48.94
79589;BME280;69067;51.930;4.492;2023-04-25T10:59:16;101615.16;;;18.39;48.83
79589;BME280;69067;51.930;4.492;2023-04-25T11:01:45;101612.59;;;18.37;49.54
79589;BME280;69067;51.930;4.492;2023-04-25T11:04:23;101603.81;;;18.35;48.99
79589;BME280;69067;51.930;4.492;2023-04-25T11:07:26;101614.28;;;18.38;48.63
79589;BME280;69067;51.930;4.492;2023-04-25T11:10:02;101608.91;;;18.38;49.44
79589;BME280;69067;51.930;4.492;2023-04-25T11:12:33;101610.75;;;18.38;49.60
79589;BME280;69067;51.930;4.492;2023-04-25T11:15:03;101619.69;;;18.38;49.58
79589;BME280;69067;51.930;4.492;2023-04-25T11:17:33;101618.00;;;18.37;49.51
79589;BME280;69067;51.930;4.492;2023-04-25T11:20:00;101616.28;;;18.36;48.36
79589;BME280;69067;51.930;4.492;2023-04-25T11:22:29;101625.06;;;18.38;49.37
79589;BME280;69067;51.930;4.492;2023-04-25T11:24:55;101624.22;;;18.38;49.25
79589;BME280;69067;51.930;4.492;2023-04-25T11:27:21;101619.69;;;18.38;48.82
79589;BME280;69067;51.930;4.492;2023-04-25T11:29:47;101625.94;;;18.39;49.14
79589;BME280;69067;51.930;4.492;2023-04-25T11:32:15;101637.53;;;18.39;49.03
79589;BME280;69067;51.930;4.492;2023-04-25T11:34:44;101635.16;;;18.36;48.97
79589;BME280;69067;51.930;4.492;2023-04-25T11:37:13;101633.16;;;18.38;48.72
79589;BME280;69067;51.930;4.492;2023-04-25T11:39:44;101640.22;;;18.39;48.62
79589;BME280;69067;51.930;4.492;2023-04-25T11:42:11;101644.94;;;18.37;49.35
79589;BME280;69067;51.930;4.492;2023-04-25T11:44:39;101638.56;;;18.38;48.94
79589;BME280;69067;51.930;4.492;2023-04-25T11:47:06;101627.94;;;18.37;48.69
79589;BME280;69067;51.930;4.492;2023-04-25T11:49:31;101642.25;;;18.37;48.99
79589;BME280;69067;51.930;4.492;2023-04-25T11:51:57;101638.56;;;18.38;48.70
79589;BME280;69067;51.930;4.492;2023-04-25T11:54:23;101647.31;;;18.40;48.66
79589;BME280;69067;51.930;4.492;2023-04-25T11:56:49;101647.66;;;18.37;48.43
79589;BME280;69067;51.930;4.492;2023-04-25T11:59:15;101646.94;;;18.35;48.07
79589;BME280;69067;51.930;4.492;2023-04-25T12:01:48;101658.59;;;18.36;48.15
79589;BME280;69067;51.930;4.492;2023-04-25T12:04:23;101659.28;;;18.38;48.00
79589;BME280;69067;51.930;4.492;2023-04-25T12:06:52;101652.19;;;18.37;47.66
79589;BME280;69067;51.930;4.492;2023-04-25T12:09:27;101665.66;;;18.37;47.52
79589;BME280;69067;51.930;4.492;2023-04-25T12:11:56;101674.59;;;18.37;48.02
79589;BME280;69067;51.930;4.492;2023-04-25T12:14:25;101661.13;;;18.37;48.19
79589;BME280;69067;51.930;4.492;2023-04-25T12:16:55;101658.59;;;18.36;48.36
79589;BME280;69067;51.930;4.492;2023-04-25T12:19:23;101654.19;;;18.35;47.48
79589;BME280;69067;51.930;4.492;2023-04-25T12:21:50;101668.00;;;18.32;47.25
79589;BME280;69067;51.930;4.492;2023-04-25T12:24:24;101668.13;;;18.30;47.18
79589;BME280;69067;51.930;4.492;2023-04-25T12:27:04;101678.22;;;18.28;48.36
79589;BME280;69067;51.930;4.492;2023-04-25T12:29:33;101678.53;;;18.25;47.03
79589;BME280;69067;51.930;4.492;2023-04-25T12:32:00;101679.69;;;18.23;47.26
79589;BME280;69067;51.930;4.492;2023-04-25T12:34:27;101675.84;;;18.25;48.02
79589;BME280;69067;51.930;4.492;2023-04-25T12:36:54;101681.91;;;18.27;46.71
79589;BME280;69067;51.930;4.492;2023-04-25T12:39:23;101680.69;;;18.22;46.48
79589;BME280;69067;51.930;4.492;2023-04-25T12:41:51;101683.22;;;18.23;46.76
79589;BME280;69067;51.930;4.492;2023-04-25T12:44:20;101682.22;;;18.24;46.81
79589;BME280;69067;51.930;4.492;2023-04-25T12:46:47;101685.06;;;18.23;46.32
79589;BME280;69067;51.930;4.492;2023-04-25T12:49:13;101692.16;;;18.24;46.65
79589;BME280;69067;51.930;4.492;2023-04-25T12:51:40;101702.09;;;18.23;47.15
79589;BME280;69067;51.930;4.492;2023-04-25T12:54:07;101691.69;;;18.28;45.78
79589;BME280;69067;51.930;4.492;2023-04-25T12:56:34;101693.69;;;18.26;46.29
79589;BME280;69067;51.930;4.492;2023-04-25T12:59:01;101687.78;;;18.23;45.81